N6091 KPCM-KHWO
Flight info
| Callsign | N6091 |
|---|---|
| Flight time | 1h 3m |
| Altitude | 7000 |
| Route | CROWD HALLR V511 GILBI T349 NEWER |
| Aircraft | C208/L-SDFGR/C |
Departure
| Time | 2026-04-26 18:43 |
|---|---|
| Airport | Plant City Municipal Airport (KPCM) |
Arrival
| Time | 2026-04-26 19:46 |
|---|---|
| Airport | North Perry Airport (KHWO) |
| Time | Latitude | Longitude | Altitude | Speed | Heading |
|---|---|---|---|---|---|
| 2026-04-26 18:18 | 28.00107 | -82.16213 | 164 ft | 0 kts | 185° |
| 2026-04-26 18:35 | 28.00105 | -82.16221 | 164 ft | 3 kts | 276° |
| 2026-04-26 18:36 | 28.00098 | -82.16265 | 165 ft | 9 kts | 216° |
| 2026-04-26 18:36 | 28.00056 | -82.16319 | 166 ft | 13 kts | 272° |
| 2026-04-26 18:36 | 28.00063 | -82.16404 | 168 ft | 6 kts | 274° |
| 2026-04-26 18:36 | 28.00064 | -82.16427 | 168 ft | 2 kts | 272° |
| 2026-04-26 18:37 | 28.00069 | -82.16507 | 168 ft | 17 kts | 275° |
| 2026-04-26 18:37 | 28.00081 | -82.16681 | 164 ft | 27 kts | 274° |
| 2026-04-26 18:37 | 28.00091 | -82.16844 | 165 ft | 0 kts | 274° |
| 2026-04-26 18:41 | 28.00091 | -82.16851 | 165 ft | 5 kts | 270° |
| 2026-04-26 18:42 | 28.00054 | -82.16845 | 165 ft | 14 kts | 107° |
| 2026-04-26 18:42 | 28.00034 | -82.16582 | 166 ft | 58 kts | 95° |
| 2026-04-26 18:42 | 27.99996 | -82.15987 | 243 ft | 86 kts | 92° |
| 2026-04-26 18:42 | 27.99948 | -82.15296 | 448 ft | 90 kts | 99° |
| 2026-04-26 18:43 | 27.99709 | -82.14634 | 651 ft | 97 kts | 124° |
| 2026-04-26 18:43 | 27.99179 | -82.14166 | 903 ft | 102 kts | 164° |
| 2026-04-26 18:43 | 27.98501 | -82.13964 | 1224 ft | 96 kts | 164° |
| 2026-04-26 18:43 | 27.97823 | -82.13766 | 1433 ft | 107 kts | 170° |
| 2026-04-26 18:44 | 27.97080 | -82.13597 | 1689 ft | 116 kts | 168° |
| 2026-04-26 18:44 | 27.96194 | -82.13400 | 1707 ft | 142 kts | 169° |
| 2026-04-26 18:44 | 27.95172 | -82.13171 | 1712 ft | 157 kts | 169° |
| 2026-04-26 18:44 | 27.94088 | -82.12930 | 1710 ft | 159 kts | 169° |
| 2026-04-26 18:45 | 27.93006 | -82.12686 | 1708 ft | 158 kts | 169° |
| 2026-04-26 18:45 | 27.91926 | -82.12442 | 1708 ft | 158 kts | 169° |
| 2026-04-26 18:45 | 27.90855 | -82.12199 | 1709 ft | 156 kts | 169° |
| 2026-04-26 18:45 | 27.89801 | -82.11970 | 1712 ft | 155 kts | 172° |
| 2026-04-26 18:46 | 27.88778 | -82.11817 | 1948 ft | 143 kts | 173° |
| 2026-04-26 18:46 | 27.87835 | -82.11620 | 2184 ft | 135 kts | 156° |
| 2026-04-26 18:46 | 27.87076 | -82.10980 | 2266 ft | 142 kts | 141° |
| 2026-04-26 18:46 | 27.86263 | -82.10300 | 2273 ft | 148 kts | 146° |
| 2026-04-26 18:47 | 27.85389 | -82.09645 | 2294 ft | 151 kts | 148° |
| 2026-04-26 18:47 | 27.84498 | -82.09003 | 2370 ft | 149 kts | 147° |
| 2026-04-26 18:47 | 27.83632 | -82.08366 | 2501 ft | 148 kts | 147° |
| 2026-04-26 18:47 | 27.82782 | -82.07743 | 2664 ft | 143 kts | 147° |
| 2026-04-26 18:48 | 27.81929 | -82.07124 | 2737 ft | 144 kts | 148° |
| 2026-04-26 18:48 | 27.81104 | -82.06524 | 2925 ft | 141 kts | 147° |
| 2026-04-26 18:48 | 27.80288 | -82.05931 | 3113 ft | 138 kts | 147° |
| 2026-04-26 18:48 | 27.79486 | -82.05351 | 3311 ft | 137 kts | 147° |
| 2026-04-26 18:49 | 27.78687 | -82.04773 | 3503 ft | 135 kts | 148° |
| 2026-04-26 18:49 | 27.77901 | -82.04201 | 3697 ft | 134 kts | 148° |
| 2026-04-26 18:49 | 27.77120 | -82.03636 | 3896 ft | 133 kts | 148° |
| 2026-04-26 18:49 | 27.76342 | -82.03071 | 4092 ft | 132 kts | 147° |
| 2026-04-26 18:50 | 27.75566 | -82.02509 | 4289 ft | 133 kts | 147° |
| 2026-04-26 18:50 | 27.74780 | -82.01938 | 4493 ft | 136 kts | 148° |
| 2026-04-26 18:50 | 27.73977 | -82.01359 | 4698 ft | 139 kts | 148° |
| 2026-04-26 18:50 | 27.73156 | -82.00766 | 4904 ft | 141 kts | 147° |
| 2026-04-26 18:51 | 27.72334 | -82.00172 | 5103 ft | 142 kts | 147° |
| 2026-04-26 18:51 | 27.71501 | -81.99569 | 5305 ft | 142 kts | 148° |
| 2026-04-26 18:51 | 27.70668 | -81.98966 | 5507 ft | 142 kts | 147° |
| 2026-04-26 18:51 | 27.69828 | -81.98359 | 5708 ft | 144 kts | 148° |
| 2026-04-26 18:52 | 27.68986 | -81.97750 | 5907 ft | 144 kts | 147° |
| 2026-04-26 18:52 | 27.68429 | -81.97346 | 6041 ft | 144 kts | 147° |
| 2026-04-26 18:52 | 27.67297 | -81.96529 | 6308 ft | 145 kts | 147° |
| 2026-04-26 18:52 | 27.66594 | -81.95735 | 6505 ft | 145 kts | 117° |
| 2026-04-26 18:53 | 27.66243 | -81.94677 | 6707 ft | 144 kts | 110° |
| 2026-04-26 18:53 | 27.65883 | -81.93624 | 6918 ft | 144 kts | 111° |
| 2026-04-26 18:53 | 27.65528 | -81.92573 | 7103 ft | 143 kts | 111° |
| 2026-04-26 18:53 | 27.65176 | -81.91529 | 7303 ft | 143 kts | 110° |
| 2026-04-26 18:54 | 27.64828 | -81.90496 | 7499 ft | 143 kts | 110° |
| 2026-04-26 18:54 | 27.64477 | -81.89451 | 7701 ft | 143 kts | 110° |
| 2026-04-26 18:54 | 27.64122 | -81.88398 | 7815 ft | 149 kts | 111° |
| 2026-04-26 18:54 | 27.63727 | -81.87232 | 7650 ft | 169 kts | 111° |
| 2026-04-26 18:55 | 27.63293 | -81.85949 | 7448 ft | 181 kts | 111° |
| 2026-04-26 18:55 | 27.62836 | -81.84597 | 7243 ft | 187 kts | 111° |
| 2026-04-26 18:55 | 27.62369 | -81.83211 | 7069 ft | 189 kts | 111° |
| 2026-04-26 18:55 | 27.61912 | -81.81854 | 7068 ft | 182 kts | 110° |
| 2026-04-26 18:56 | 27.61470 | -81.80538 | 7068 ft | 178 kts | 111° |
| 2026-04-26 18:56 | 27.61034 | -81.79243 | 7062 ft | 176 kts | 111° |
| 2026-04-26 18:56 | 27.60599 | -81.77962 | 7061 ft | 175 kts | 111° |
| 2026-04-26 18:56 | 27.60167 | -81.76683 | 7057 ft | 174 kts | 111° |
| 2026-04-26 18:57 | 27.59736 | -81.75408 | 7059 ft | 174 kts | 111° |
| 2026-04-26 18:57 | 27.59450 | -81.74560 | 7057 ft | 174 kts | 111° |
| 2026-04-26 18:57 | 27.58879 | -81.72875 | 7056 ft | 174 kts | 111° |
| 2026-04-26 18:57 | 27.58449 | -81.71602 | 7056 ft | 174 kts | 111° |
| 2026-04-26 18:58 | 27.58018 | -81.70332 | 7055 ft | 173 kts | 111° |
| 2026-04-26 18:58 | 27.57590 | -81.69065 | 7053 ft | 173 kts | 111° |
| 2026-04-26 18:58 | 27.57162 | -81.67802 | 7054 ft | 173 kts | 111° |
| 2026-04-26 18:58 | 27.56733 | -81.66535 | 7054 ft | 173 kts | 111° |
| 2026-04-26 18:59 | 27.56301 | -81.65264 | 7055 ft | 173 kts | 111° |
| 2026-04-26 18:59 | 27.55872 | -81.63997 | 7055 ft | 173 kts | 111° |
| 2026-04-26 18:59 | 27.55441 | -81.62727 | 7055 ft | 173 kts | 111° |
| 2026-04-26 18:59 | 27.55017 | -81.61472 | 7056 ft | 174 kts | 111° |
| 2026-04-26 19:00 | 27.54563 | -81.60209 | 7054 ft | 174 kts | 117° |
| 2026-04-26 19:00 | 27.53769 | -81.59200 | 7053 ft | 173 kts | 142° |
| 2026-04-26 19:00 | 27.52836 | -81.58353 | 7050 ft | 172 kts | 140° |
| 2026-04-26 19:00 | 27.51918 | -81.57488 | 7056 ft | 173 kts | 140° |
| 2026-04-26 19:01 | 27.50992 | -81.56623 | 7056 ft | 173 kts | 141° |
| 2026-04-26 19:01 | 27.50065 | -81.55756 | 7058 ft | 173 kts | 140° |
| 2026-04-26 19:01 | 27.49139 | -81.54892 | 7056 ft | 173 kts | 141° |
| 2026-04-26 19:01 | 27.48216 | -81.54030 | 7055 ft | 172 kts | 141° |
| 2026-04-26 19:02 | 27.47308 | -81.53182 | 7053 ft | 172 kts | 141° |
| 2026-04-26 19:02 | 27.46387 | -81.52324 | 7053 ft | 172 kts | 141° |
| 2026-04-26 19:02 | 27.45468 | -81.51465 | 7053 ft | 172 kts | 140° |
| 2026-04-26 19:02 | 27.44858 | -81.50895 | 7057 ft | 172 kts | 141° |
| 2026-04-26 19:03 | 27.43621 | -81.49743 | 7054 ft | 172 kts | 141° |
| 2026-04-26 19:03 | 27.42698 | -81.48883 | 7054 ft | 172 kts | 141° |
| 2026-04-26 19:03 | 27.41773 | -81.48020 | 7056 ft | 173 kts | 141° |
| 2026-04-26 19:03 | 27.40846 | -81.47157 | 7056 ft | 173 kts | 141° |
| 2026-04-26 19:04 | 27.39919 | -81.46293 | 7056 ft | 173 kts | 141° |
| 2026-04-26 19:04 | 27.38993 | -81.45431 | 7055 ft | 172 kts | 141° |
| 2026-04-26 19:04 | 27.38082 | -81.44582 | 7057 ft | 173 kts | 141° |
| 2026-04-26 19:04 | 27.37157 | -81.43721 | 7056 ft | 173 kts | 141° |
| 2026-04-26 19:05 | 27.35303 | -81.41995 | 7055 ft | 172 kts | 141° |
| 2026-04-26 19:05 | 27.34378 | -81.41134 | 7057 ft | 173 kts | 141° |
| 2026-04-26 19:05 | 27.33451 | -81.40272 | 7055 ft | 173 kts | 141° |
| 2026-04-26 19:06 | 27.32529 | -81.39412 | 7054 ft | 173 kts | 141° |
| 2026-04-26 19:06 | 27.31601 | -81.38552 | 7053 ft | 173 kts | 141° |
| 2026-04-26 19:06 | 27.30675 | -81.37691 | 7056 ft | 173 kts | 141° |
| 2026-04-26 19:06 | 27.29747 | -81.36828 | 7056 ft | 173 kts | 141° |
| 2026-04-26 19:07 | 27.28817 | -81.35965 | 7057 ft | 174 kts | 141° |
| 2026-04-26 19:07 | 27.27886 | -81.35099 | 7056 ft | 174 kts | 141° |
| 2026-04-26 19:07 | 27.26954 | -81.34234 | 7056 ft | 174 kts | 141° |
| 2026-04-26 19:07 | 27.26036 | -81.33379 | 7056 ft | 173 kts | 141° |
| 2026-04-26 19:08 | 27.25107 | -81.32519 | 7055 ft | 173 kts | 141° |
| 2026-04-26 19:08 | 27.24180 | -81.31658 | 7054 ft | 173 kts | 141° |
| 2026-04-26 19:08 | 27.23255 | -81.30800 | 7054 ft | 172 kts | 141° |
| 2026-04-26 19:08 | 27.22332 | -81.29944 | 7054 ft | 173 kts | 141° |
| 2026-04-26 19:09 | 27.21405 | -81.29084 | 7053 ft | 173 kts | 141° |
| 2026-04-26 19:09 | 27.20479 | -81.28225 | 7055 ft | 173 kts | 141° |
| 2026-04-26 19:09 | 27.19551 | -81.27364 | 7053 ft | 173 kts | 141° |
| 2026-04-26 19:09 | 27.18626 | -81.26507 | 7054 ft | 172 kts | 141° |
| 2026-04-26 19:10 | 27.17700 | -81.25648 | 7054 ft | 173 kts | 141° |
| 2026-04-26 19:10 | 27.16772 | -81.24789 | 7051 ft | 173 kts | 141° |
| 2026-04-26 19:10 | 27.15857 | -81.23941 | 7054 ft | 173 kts | 141° |
| 2026-04-26 19:10 | 27.14925 | -81.23079 | 7055 ft | 174 kts | 141° |
| 2026-04-26 19:11 | 27.13991 | -81.22214 | 7053 ft | 174 kts | 141° |
| 2026-04-26 19:11 | 27.13056 | -81.21348 | 7053 ft | 174 kts | 141° |
| 2026-04-26 19:11 | 27.12119 | -81.20481 | 7057 ft | 175 kts | 141° |
| 2026-04-26 19:11 | 27.11181 | -81.19614 | 7053 ft | 175 kts | 141° |
| 2026-04-26 19:12 | 27.10243 | -81.18746 | 7055 ft | 174 kts | 141° |
| 2026-04-26 19:12 | 27.09307 | -81.17879 | 7055 ft | 174 kts | 141° |
| 2026-04-26 19:12 | 27.08371 | -81.17013 | 7054 ft | 174 kts | 141° |
| 2026-04-26 19:12 | 27.07435 | -81.16148 | 7055 ft | 174 kts | 141° |
| 2026-04-26 19:13 | 27.06510 | -81.15295 | 7053 ft | 174 kts | 141° |
| 2026-04-26 19:13 | 27.05575 | -81.14430 | 7054 ft | 174 kts | 141° |
| 2026-04-26 19:13 | 27.04642 | -81.13567 | 7054 ft | 174 kts | 141° |
| 2026-04-26 19:13 | 27.03707 | -81.12704 | 7055 ft | 174 kts | 141° |
| 2026-04-26 19:14 | 27.02708 | -81.11941 | 7050 ft | 174 kts | 151° |
| 2026-04-26 19:14 | 27.01651 | -81.11292 | 7052 ft | 173 kts | 151° |
| 2026-04-26 19:14 | 27.00604 | -81.10630 | 7053 ft | 173 kts | 151° |
| 2026-04-26 19:14 | 27.00251 | -81.10405 | 7052 ft | 173 kts | 151° |
| 2026-04-26 19:15 | 26.98518 | -81.09301 | 7052 ft | 172 kts | 150° |
| 2026-04-26 19:15 | 26.97479 | -81.08642 | 7052 ft | 172 kts | 151° |
| 2026-04-26 19:15 | 26.96437 | -81.07980 | 7051 ft | 172 kts | 150° |
| 2026-04-26 19:15 | 26.95399 | -81.07321 | 7051 ft | 172 kts | 151° |
| 2026-04-26 19:16 | 26.94374 | -81.06669 | 7049 ft | 171 kts | 150° |
| 2026-04-26 19:16 | 26.93336 | -81.06010 | 7052 ft | 171 kts | 151° |
| 2026-04-26 19:16 | 26.92299 | -81.05352 | 7051 ft | 171 kts | 151° |
| 2026-04-26 19:16 | 26.91262 | -81.04695 | 7051 ft | 171 kts | 151° |
| 2026-04-26 19:17 | 26.90225 | -81.04036 | 7051 ft | 171 kts | 151° |
| 2026-04-26 19:17 | 26.89187 | -81.03379 | 7050 ft | 171 kts | 151° |
| 2026-04-26 19:17 | 26.88150 | -81.02721 | 7051 ft | 172 kts | 151° |
| 2026-04-26 19:17 | 26.87111 | -81.02062 | 7050 ft | 172 kts | 151° |
| 2026-04-26 19:18 | 26.86074 | -81.01404 | 7051 ft | 171 kts | 151° |
| 2026-04-26 19:18 | 26.85036 | -81.00747 | 7052 ft | 171 kts | 151° |
| 2026-04-26 19:18 | 26.83999 | -81.00090 | 7051 ft | 171 kts | 151° |
| 2026-04-26 19:18 | 26.82960 | -80.99432 | 7051 ft | 172 kts | 151° |
| 2026-04-26 19:19 | 26.81936 | -80.98783 | 7051 ft | 171 kts | 151° |
| 2026-04-26 19:19 | 26.80897 | -80.98126 | 7051 ft | 171 kts | 151° |
| 2026-04-26 19:19 | 26.79858 | -80.97467 | 7052 ft | 172 kts | 151° |
| 2026-04-26 19:19 | 26.78815 | -80.96808 | 7052 ft | 172 kts | 151° |
| 2026-04-26 19:20 | 26.77771 | -80.96147 | 7053 ft | 172 kts | 151° |
| 2026-04-26 19:20 | 26.77081 | -80.95710 | 7051 ft | 172 kts | 151° |
| 2026-04-26 19:20 | 26.75687 | -80.94827 | 7052 ft | 172 kts | 151° |
| 2026-04-26 19:20 | 26.74642 | -80.94169 | 7052 ft | 172 kts | 151° |
| 2026-04-26 19:21 | 26.73600 | -80.93510 | 7052 ft | 172 kts | 151° |
| 2026-04-26 19:21 | 26.72557 | -80.92850 | 7051 ft | 172 kts | 151° |
| 2026-04-26 19:21 | 26.71531 | -80.92201 | 7052 ft | 172 kts | 151° |
| 2026-04-26 19:21 | 26.70488 | -80.91542 | 7052 ft | 172 kts | 151° |
| 2026-04-26 19:22 | 26.69445 | -80.90883 | 7050 ft | 172 kts | 151° |
| 2026-04-26 19:22 | 26.68406 | -80.90227 | 7049 ft | 172 kts | 151° |
| 2026-04-26 19:22 | 26.67366 | -80.89570 | 7049 ft | 172 kts | 151° |
| 2026-04-26 19:22 | 26.66325 | -80.88912 | 7050 ft | 172 kts | 151° |
| 2026-04-26 19:23 | 26.65285 | -80.88257 | 7050 ft | 171 kts | 151° |
| 2026-04-26 19:23 | 26.64247 | -80.87602 | 7050 ft | 171 kts | 151° |
| 2026-04-26 19:23 | 26.63210 | -80.86947 | 7050 ft | 171 kts | 151° |
| 2026-04-26 19:23 | 26.62171 | -80.86293 | 7050 ft | 171 kts | 151° |
| 2026-04-26 19:24 | 26.61133 | -80.85638 | 7052 ft | 171 kts | 151° |
| 2026-04-26 19:24 | 26.60096 | -80.84984 | 7053 ft | 171 kts | 151° |
| 2026-04-26 19:24 | 26.58031 | -80.83681 | 7052 ft | 172 kts | 151° |
| 2026-04-26 19:25 | 26.56992 | -80.83026 | 7052 ft | 171 kts | 151° |
| 2026-04-26 19:25 | 26.56641 | -80.82805 | 7052 ft | 171 kts | 151° |
| 2026-04-26 19:25 | 26.54916 | -80.81720 | 7053 ft | 171 kts | 151° |
| 2026-04-26 19:25 | 26.53879 | -80.81066 | 7051 ft | 171 kts | 151° |
| 2026-04-26 19:26 | 26.52840 | -80.80412 | 7053 ft | 171 kts | 151° |
| 2026-04-26 19:26 | 26.51802 | -80.79758 | 7055 ft | 171 kts | 151° |
| 2026-04-26 19:26 | 26.50761 | -80.79104 | 7053 ft | 172 kts | 151° |
| 2026-04-26 19:26 | 26.49721 | -80.78449 | 7054 ft | 172 kts | 151° |
| 2026-04-26 19:27 | 26.48680 | -80.77793 | 7052 ft | 172 kts | 151° |
| 2026-04-26 19:27 | 26.47655 | -80.77149 | 7054 ft | 172 kts | 151° |
| 2026-04-26 19:27 | 26.46612 | -80.76492 | 7055 ft | 172 kts | 151° |
| 2026-04-26 19:27 | 26.45568 | -80.75836 | 7056 ft | 172 kts | 151° |
| 2026-04-26 19:28 | 26.44525 | -80.75181 | 7055 ft | 172 kts | 151° |
| 2026-04-26 19:28 | 26.43483 | -80.74524 | 7052 ft | 172 kts | 151° |
| 2026-04-26 19:28 | 26.42439 | -80.73868 | 7051 ft | 172 kts | 151° |
| 2026-04-26 19:28 | 26.41402 | -80.73215 | 7051 ft | 171 kts | 151° |
| 2026-04-26 19:29 | 26.40362 | -80.72563 | 7050 ft | 171 kts | 151° |
| 2026-04-26 19:29 | 26.39324 | -80.71911 | 7049 ft | 171 kts | 151° |
| 2026-04-26 19:29 | 26.38285 | -80.71261 | 7052 ft | 171 kts | 151° |
| 2026-04-26 19:29 | 26.37247 | -80.70609 | 7052 ft | 171 kts | 151° |
| 2026-04-26 19:30 | 26.36210 | -80.69960 | 7050 ft | 171 kts | 151° |
| 2026-04-26 19:30 | 26.35186 | -80.69317 | 7053 ft | 171 kts | 151° |
| 2026-04-26 19:30 | 26.34146 | -80.68665 | 7051 ft | 171 kts | 151° |
| 2026-04-26 19:30 | 26.33796 | -80.68445 | 7052 ft | 171 kts | 151° |
| 2026-04-26 19:31 | 26.32068 | -80.67363 | 7053 ft | 171 kts | 151° |
| 2026-04-26 19:31 | 26.31028 | -80.66712 | 7052 ft | 171 kts | 151° |
| 2026-04-26 19:31 | 26.29989 | -80.66061 | 7052 ft | 171 kts | 151° |
| 2026-04-26 19:31 | 26.28951 | -80.65411 | 7052 ft | 171 kts | 151° |
| 2026-04-26 19:32 | 26.27912 | -80.64760 | 7051 ft | 171 kts | 151° |
| 2026-04-26 19:32 | 26.26877 | -80.64111 | 7051 ft | 171 kts | 151° |
| 2026-04-26 19:32 | 26.25835 | -80.63460 | 7050 ft | 171 kts | 151° |
| 2026-04-26 19:32 | 26.25147 | -80.63029 | 7048 ft | 171 kts | 151° |
| 2026-04-26 19:33 | 26.23769 | -80.62168 | 7051 ft | 171 kts | 150° |
| 2026-04-26 19:33 | 26.22846 | -80.61336 | 7051 ft | 171 kts | 137° |
| 2026-04-26 19:33 | 26.21868 | -80.60587 | 7051 ft | 171 kts | 149° |
| 2026-04-26 19:33 | 26.20846 | -80.59908 | 7052 ft | 171 kts | 149° |
| 2026-04-26 19:34 | 26.19825 | -80.59228 | 7053 ft | 171 kts | 149° |
| 2026-04-26 19:34 | 26.19146 | -80.58775 | 7051 ft | 171 kts | 149° |
| 2026-04-26 19:34 | 26.18124 | -80.58094 | 7053 ft | 171 kts | 149° |
| 2026-04-26 19:34 | 26.17097 | -80.57408 | 6979 ft | 176 kts | 149° |
| 2026-04-26 19:35 | 26.16065 | -80.56720 | 6835 ft | 168 kts | 149° |
| 2026-04-26 19:35 | 26.15100 | -80.56079 | 6569 ft | 157 kts | 149° |
| 2026-04-26 19:35 | 26.14198 | -80.55481 | 6297 ft | 145 kts | 150° |
| 2026-04-26 19:35 | 26.13355 | -80.54920 | 6024 ft | 138 kts | 150° |
| 2026-04-26 19:36 | 26.12286 | -80.54206 | 5669 ft | 133 kts | 149° |
| 2026-04-26 19:36 | 26.12018 | -80.54027 | 5579 ft | 132 kts | 150° |
| 2026-04-26 19:36 | 26.10972 | -80.53327 | 5233 ft | 130 kts | 148° |
| 2026-04-26 19:36 | 26.10210 | -80.52816 | 4980 ft | 129 kts | 149° |
| 2026-04-26 19:37 | 26.09445 | -80.52306 | 4726 ft | 128 kts | 150° |
| 2026-04-26 19:37 | 26.08686 | -80.51797 | 4473 ft | 127 kts | 149° |
| 2026-04-26 19:37 | 26.07930 | -80.51291 | 4224 ft | 127 kts | 149° |
| 2026-04-26 19:37 | 26.07177 | -80.50787 | 3971 ft | 126 kts | 149° |
| 2026-04-26 19:38 | 26.06427 | -80.50284 | 3721 ft | 126 kts | 149° |
| 2026-04-26 19:38 | 26.05678 | -80.49782 | 3471 ft | 125 kts | 149° |
| 2026-04-26 19:38 | 26.04952 | -80.49294 | 3404 ft | 120 kts | 149° |
| 2026-04-26 19:38 | 26.04417 | -80.48609 | 3404 ft | 120 kts | 114° |
| 2026-04-26 19:39 | 26.04056 | -80.47767 | 3408 ft | 121 kts | 116° |
| 2026-04-26 19:39 | 26.03682 | -80.46925 | 3406 ft | 122 kts | 116° |
| 2026-04-26 19:39 | 26.03284 | -80.46026 | 3190 ft | 136 kts | 116° |
| 2026-04-26 19:39 | 26.02851 | -80.45056 | 2953 ft | 143 kts | 116° |
| 2026-04-26 19:40 | 26.02404 | -80.44050 | 2730 ft | 147 kts | 116° |
| 2026-04-26 19:40 | 26.01950 | -80.43025 | 2494 ft | 148 kts | 116° |
| 2026-04-26 19:40 | 26.01506 | -80.42029 | 2403 ft | 141 kts | 116° |
| 2026-04-26 19:40 | 26.01087 | -80.41087 | 2261 ft | 130 kts | 116° |
| 2026-04-26 19:41 | 26.00701 | -80.40215 | 2113 ft | 122 kts | 116° |
| 2026-04-26 19:41 | 26.00400 | -80.39355 | 1995 ft | 115 kts | 99° |
| 2026-04-26 19:41 | 26.00295 | -80.38517 | 1987 ft | 105 kts | 98° |
| 2026-04-26 19:41 | 26.00224 | -80.37974 | 1993 ft | 110 kts | 97° |
| 2026-04-26 19:42 | 26.00271 | -80.36799 | 2005 ft | 117 kts | 85° |
| 2026-04-26 19:42 | 26.00328 | -80.35847 | 1931 ft | 124 kts | 88° |
| 2026-04-26 19:42 | 26.00337 | -80.34899 | 1962 ft | 122 kts | 90° |
| 2026-04-26 19:42 | 26.00287 | -80.33948 | 1948 ft | 124 kts | 95° |
| 2026-04-26 19:43 | 26.00220 | -80.32998 | 1922 ft | 126 kts | 94° |
| 2026-04-26 19:43 | 26.00176 | -80.32034 | 1835 ft | 123 kts | 90° |
| 2026-04-26 19:43 | 26.00181 | -80.31081 | 1733 ft | 120 kts | 90° |
| 2026-04-26 19:43 | 26.00169 | -80.30218 | 1629 ft | 107 kts | 90° |
| 2026-04-26 19:44 | 26.00167 | -80.29386 | 1420 ft | 107 kts | 89° |
| 2026-04-26 19:44 | 26.00182 | -80.28557 | 1208 ft | 108 kts | 89° |
| 2026-04-26 19:44 | 26.00209 | -80.27716 | 944 ft | 104 kts | 86° |
| 2026-04-26 19:44 | 26.00226 | -80.26961 | 755 ft | 94 kts | 88° |
| 2026-04-26 19:45 | 26.00247 | -80.26257 | 578 ft | 88 kts | 89° |
| 2026-04-26 19:45 | 26.00248 | -80.25594 | 415 ft | 84 kts | 91° |
| 2026-04-26 19:45 | 26.00223 | -80.24963 | 239 ft | 78 kts | 89° |
| 2026-04-26 19:45 | 26.00228 | -80.24364 | 33 ft | 75 kts | 91° |
| 2026-04-26 19:46 | 26.00225 | -80.23858 | 17 ft | 53 kts | 89° |
| 2026-04-26 19:46 | 26.00224 | -80.23569 | 15 ft | 23 kts | 89° |
| 2026-04-26 19:46 | 26.00268 | -80.23511 | 16 ft | 3 kts | 50° |
| 2026-04-26 19:46 | 26.00254 | -80.23505 | 15 ft | 5 kts | 178° |
| 2026-04-26 19:47 | 26.00171 | -80.23506 | 14 ft | 19 kts | 184° |
| 2026-04-26 19:47 | 26.00080 | -80.23525 | 16 ft | 17 kts | 200° |
| 2026-04-26 19:47 | 25.99973 | -80.23592 | 18 ft | 20 kts | 227° |
| 2026-04-26 19:47 | 25.99935 | -80.23690 | 18 ft | 8 kts | 227° |
| 2026-04-26 19:48 | 25.99934 | -80.23692 | 18 ft | 0 kts | 227° |